Time;durP1;ratioP1;P1;durP2;ratioP2;P2;SDS_P1;SDS_P2;PMS_P1;PMS_P2;Temp;Humidity;BMP_temperature;BMP_pressure;BME280_temperature;BME280_humidity;BME280_pressure;Samples;Min_cycle;Max_cycle;Signal;HPM_P1;HPM_P2
2022/12/07 00:02:20;;;;;;;3.47;2.53;;;5.80;99.90;;;;;;5139442;28;20042;-61
2022/12/07 00:04:54;;;;;;;4.90;3.33;;;5.80;99.90;;;;;;5142449;28;20063;-62
2022/12/07 00:07:25;;;;;;;4.13;3.25;;;5.80;99.90;;;;;;5124194;28;20054;-62
2022/12/07 00:09:58;;;;;;;3.80;2.70;;;5.80;99.90;;;;;;5154010;28;20204;-60
2022/12/07 00:12:37;;;;;;;3.75;2.67;;;5.80;99.90;;;;;;5147326;28;20349;-61
2022/12/07 00:15:09;;;;;;;6.70;3.28;;;5.80;99.90;;;;;;5134620;28;20072;-61
2022/12/07 00:17:46;;;;;;;4.80;3.13;;;5.80;99.90;;;;;;5135436;28;20046;-60
2022/12/07 00:20:23;;;;;;;7.55;3.50;;;5.80;99.90;;;;;;5170902;28;20046;-61
2022/12/07 00:22:55;;;;;;;4.45;3.22;;;5.80;99.90;;;;;;5169695;28;20214;-61
2022/12/07 00:25:35;;;;;;;5.70;3.50;;;5.70;99.90;;;;;;5175985;28;20037;-60
2022/12/07 00:28:10;;;;;;;5.93;4.03;;;5.70;99.90;;;;;;5157703;28;20035;-61
2022/12/07 00:30:42;;;;;;;4.93;3.90;;;5.70;99.90;;;;;;5155507;28;20862;-61
2022/12/07 00:33:13;;;;;;;5.40;3.08;;;5.80;99.90;;;;;;5191364;28;20044;-63
2022/12/07 00:35:57;;;;;;;5.55;3.80;;;5.80;99.90;;;;;;5140353;28;20296;-60
2022/12/07 00:38:39;;;;;;;6.82;4.55;;;5.70;99.90;;;;;;5183474;28;20041;-61
2022/12/07 00:41:19;;;;;;;5.15;3.80;;;5.70;99.90;;;;;;5158889;28;20307;-61
2022/12/07 00:43:58;;;;;;;6.68;4.00;;;5.70;99.90;;;;;;5160187;28;20036;-62
2022/12/07 00:46:37;;;;;;;4.95;3.70;;;5.70;99.90;;;;;;5145401;28;20042;-60
2022/12/07 00:49:11;;;;;;;7.20;4.10;;;5.70;99.90;;;;;;5169625;28;20130;-60
2022/12/07 00:51:46;;;;;;;6.60;4.25;;;5.70;99.90;;;;;;5166096;28;20048;-61
2022/12/07 00:54:17;;;;;;;6.57;3.95;;;5.60;99.90;;;;;;5142063;28;20246;-62
2022/12/07 00:56:54;;;;;;;6.90;4.93;;;5.60;99.90;;;;;;5166944;28;20033;-61
2022/12/07 00:59:30;;;;;;;7.30;4.53;;;5.60;99.90;;;;;;5189474;28;20040;-62
2022/12/07 01:02:16;;;;;;;6.38;4.63;;;5.60;99.90;;;;;;5214050;23;20073;-70
2022/12/07 01:04:48;;;;;;;6.55;4.32;;;5.60;99.90;;;;;;5152888;28;20061;-70
2022/12/07 01:07:19;;;;;;;6.05;4.70;;;5.60;99.90;;;;;;5141723;28;20038;-71
2022/12/07 01:09:52;;;;;;;5.95;3.65;;;5.60;99.90;;;;;;5174340;28;20034;-71
2022/12/07 01:12:26;;;;;;;6.72;4.68;;;5.50;99.90;;;;;;5168184;28;20250;-71
2022/12/07 01:15:01;;;;;;;6.35;4.32;;;5.50;99.90;;;;;;5162075;28;20042;-70
2022/12/07 01:17:33;;;;;;;5.55;4.07;;;5.50;99.90;;;;;;5154653;28;20052;-70
2022/12/07 01:20:11;;;;;;;7.70;4.22;;;5.50;99.90;;;;;;5156720;28;20030;-70
2022/12/07 01:22:54;;;;;;;7.38;4.75;;;5.50;99.90;;;;;;5146881;28;20041;-70
2022/12/07 01:25:36;;;;;;;9.45;4.25;;;5.50;99.90;;;;;;5158006;28;20038;-70
2022/12/07 01:28:22;;;;;;;4.72;3.70;;;5.50;99.90;;;;;;5129179;28;20061;-70
2022/12/07 01:31:05;;;;;;;7.35;4.28;;;5.50;99.90;;;;;;5138356;28;20050;-70
2022/12/07 01:33:41;;;;;;;7.38;4.50;;;5.50;99.90;;;;;;5180133;28;20046;-71
2022/12/07 01:36:44;;;;;;;6.72;4.80;;;5.50;99.90;;;;;;5155266;28;20058;-70
2022/12/07 01:39:21;;;;;;;7.88;4.63;;;5.50;99.90;;;;;;5166736;28;20046;-70
2022/12/07 01:41:55;;;;;;;6.70;4.32;;;5.40;99.90;;;;;;5163018;28;20038;-70
2022/12/07 01:44:32;;;;;;;6.88;5.38;;;5.40;99.90;;;;;;5142360;28;20034;-70
2022/12/07 01:47:11;;;;;;;7.55;4.72;;;5.40;99.90;;;;;;5152208;28;20054;-70
2022/12/07 01:49:53;;;;;;;7.32;4.75;;;5.40;99.90;;;;;;5171079;28;20049;-70
2022/12/07 01:52:31;;;;;;;11.55;6.60;;;5.40;99.90;;;;;;5135836;28;20720;-70
2022/12/07 01:55:12;;;;;;;8.57;5.45;;;5.40;99.90;;;;;;5167661;28;20053;-70
2022/12/07 01:57:49;;;;;;;7.30;5.13;;;5.40;99.90;;;;;;5171236;28;20034;-70
2022/12/07 02:00:29;;;;;;;7.50;5.15;;;5.40;99.90;;;;;;5140160;28;20049;-70
2022/12/07 02:03:11;;;;;;;9.43;6.38;;;5.40;99.90;;;;;;5153263;28;20343;-70
2022/12/07 02:05:51;;;;;;;9.45;5.70;;;5.30;99.90;;;;;;5152134;28;20055;-70
2022/12/07 02:08:25;;;;;;;10.60;5.57;;;5.30;99.90;;;;;;5155949;28;20349;-71
2022/12/07 02:11:09;;;;;;;10.88;5.95;;;5.30;99.90;;;;;;5150423;28;20072;-67
2022/12/07 02:13:43;;;;;;;10.82;6.10;;;5.30;99.90;;;;;;5106058;28;20061;-70
2022/12/07 02:17:00;;;;;;;7.53;5.13;;;5.30;99.90;;;;;;5124797;28;20060;-68
2022/12/07 02:20:16;;;;;;;10.90;5.55;;;5.30;99.90;;;;;;5146871;28;20275;-68
2022/12/07 02:23:32;;;;;;;8.18;4.93;;;5.30;99.90;;;;;;5075881;29;20044;-71
2022/12/07 02:26:57;;;;;;;7.60;4.93;;;5.20;99.90;;;;;;5047497;29;20036;-70
2022/12/07 02:29:45;;;;;;;6.78;4.32;;;5.20;99.90;;;;;;5051435;29;20049;-70
2022/12/07 02:32:26;;;;;;;10.77;5.97;;;5.30;99.90;;;;;;5039805;29;20048;-70
2022/12/07 02:35:40;;;;;;;10.65;5.05;;;5.30;99.90;;;;;;5038525;29;20055;-68
2022/12/07 02:38:38;;;;;;;7.03;4.97;;;5.30;99.90;;;;;;5070828;29;20051;-68
2022/12/07 02:41:18;;;;;;;11.80;5.57;;;5.30;99.90;;;;;;5037310;29;20048;-68
2022/12/07 02:43:58;;;;;;;9.48;5.13;;;5.30;99.90;;;;;;5056656;29;20036;-68
2022/12/07 02:46:44;;;;;;;8.57;4.72;;;5.40;99.90;;;;;;5070291;29;20058;-69
2022/12/07 02:49:18;;;;;;;9.27;5.50;;;5.30;99.90;;;;;;5055261;29;20047;-68
2022/12/07 02:51:54;;;;;;;7.90;5.65;;;5.30;99.90;;;;;;5037591;29;20060;-71
2022/12/07 02:54:44;;;;;;;8.40;5.30;;;5.30;99.90;;;;;;5073287;29;20148;-69
2022/12/07 02:58:10;;;;;;;6.57;4.80;;;5.30;99.90;;;;;;5052833;29;20041;-69
2022/12/07 03:01:14;;;;;;;11.38;5.55;;;5.30;99.90;;;;;;5106833;28;20035;-71
2022/12/07 03:03:58;;;;;;;7.63;4.88;;;5.30;99.90;;;;;;5116059;29;20043;-71
2022/12/07 03:06:42;;;;;;;8.85;5.00;;;5.30;99.90;;;;;;5089938;29;20059;-69
2022/12/07 03:09:27;;;;;;;7.60;4.80;;;5.30;99.90;;;;;;5122917;28;20047;-71
2022/12/07 03:12:48;;;;;;;8.57;4.68;;;5.30;99.90;;;;;;5085124;28;20042;-70
2022/12/07 03:15:40;;;;;;;10.38;5.25;;;5.20;99.90;;;;;;5072803;29;20051;-69
2022/12/07 03:18:20;;;;;;;6.75;5.03;;;5.20;99.90;;;;;;5077308;29;20085;-69
2022/12/07 03:21:04;;;;;;;9.07;5.30;;;5.20;99.90;;;;;;5122543;28;20048;-69
2022/12/07 03:23:43;;;;;;;6.85;4.70;;;5.20;99.90;;;;;;5133504;28;20235;-69
2022/12/07 03:26:21;;;;;;;6.45;4.15;;;5.30;99.90;;;;;;5165834;28;21286;-69
2022/12/07 03:28:59;;;;;;;8.77;5.10;;;5.30;99.90;;;;;;5136553;28;20039;-70
2022/12/07 03:31:41;;;;;;;5.68;4.20;;;5.20;99.90;;;;;;5132015;28;20053;-71
2022/12/07 03:34:21;;;;;;;5.05;3.88;;;5.20;99.90;;;;;;5167106;28;20331;-69
2022/12/07 03:37:05;;;;;;;7.72;4.20;;;5.20;99.90;;;;;;5152559;28;20042;-69
2022/12/07 03:40:16;;;;;;;5.88;4.18;;;5.20;99.90;;;;;;5138236;28;20151;-70
2022/12/07 03:42:59;;;;;;;6.47;4.40;;;5.20;99.90;;;;;;5117241;28;20062;-69
2022/12/07 03:45:46;;;;;;;6.97;4.15;;;5.20;99.90;;;;;;5152379;28;20034;-71
2022/12/07 03:48:34;;;;;;;6.45;4.25;;;5.20;99.90;;;;;;5152388;28;20341;-69
2022/12/07 03:51:20;;;;;;;7.80;4.68;;;5.20;99.90;;;;;;5152986;28;20042;-69
2022/12/07 03:54:23;;;;;;;6.45;4.60;;;5.20;99.90;;;;;;5106635;28;20039;-70
2022/12/07 03:57:02;;;;;;;5.82;3.60;;;5.20;99.90;;;;;;5144232;28;20061;-69
2022/12/07 03:59:34;;;;;;;7.38;4.22;;;5.20;99.90;;;;;;5161164;28;20047;-69
2022/12/07 04:02:07;;;;;;;5.82;4.00;;;5.20;99.90;;;;;;5131064;28;20343;-70
2022/12/07 04:04:48;;;;;;;7.88;4.68;;;5.20;99.90;;;;;;5142446;28;20362;-70
2022/12/07 04:07:20;;;;;;;6.68;4.43;;;5.20;99.90;;;;;;5150416;28;20047;-70
2022/12/07 04:09:54;;;;;;;7.80;4.28;;;5.20;99.90;;;;;;5152831;28;20377;-69
2022/12/07 04:12:26;;;;;;;7.55;4.75;;;5.20;99.90;;;;;;5163831;28;20042;-69
2022/12/07 04:14:57;;;;;;;6.88;4.32;;;5.20;99.90;;;;;;5161359;28;20074;-69
2022/12/07 04:17:35;;;;;;;6.68;4.15;;;5.20;99.90;;;;;;5145883;28;20056;-69
2022/12/07 04:20:11;;;;;;;6.32;4.32;;;5.20;99.90;;;;;;5150454;28;20347;-69
2022/12/07 04:22:45;;;;;;;7.38;4.75;;;5.30;99.90;;;;;;5160064;28;20349;-69
2022/12/07 04:25:20;;;;;;;6.55;4.47;;;5.20;99.90;;;;;;5110867;28;20046;-69
2022/12/07 04:28:00;;;;;;;10.13;4.88;;;5.30;99.90;;;;;;5128333;28;20051;-69
2022/12/07 04:30:34;;;;;;;9.07;4.60;;;5.20;99.90;;;;;;5123440;28;20038;-69
2022/12/07 04:33:08;;;;;;;6.68;3.70;;;5.30;99.90;;;;;;5144811;28;20120;-70
2022/12/07 04:35:44;;;;;;;6.15;4.20;;;5.30;99.90;;;;;;5147175;28;20043;-69
2022/12/07 04:38:19;;;;;;;7.68;4.88;;;5.30;99.90;;;;;;5155797;28;20107;-69
2022/12/07 04:40:50;;;;;;;;;;;5.30;99.90;;;;;;5156322;28;20476;-70
2022/12/07 04:43:27;;;;;;;7.38;4.45;;;5.20;99.90;;;;;;5151169;28;19926;-69
2022/12/07 04:46:00;;;;;;;6.50;4.53;;;5.30;99.90;;;;;;5154193;28;20039;-69
2022/12/07 04:48:35;;;;;;;7.22;4.47;;;5.30;99.90;;;;;;5168013;28;20051;-69
2022/12/07 04:51:07;;;;;;;7.35;4.60;;;5.30;99.90;;;;;;5161408;28;20055;-69
2022/12/07 04:53:41;;;;;;;8.55;4.78;;;5.30;99.90;;;;;;5148153;28;20047;-70
2022/12/07 04:56:14;;;;;;;7.68;5.50;;;5.20;99.90;;;;;;5124169;28;20043;-69
2022/12/07 04:58:54;;;;;;;9.82;4.80;;;5.30;99.90;;;;;;5136611;28;20034;-69
2022/12/07 05:01:25;;;;;;;8.77;4.68;;;5.30;99.90;;;;;;5101441;28;20038;-69
2022/12/07 05:03:58;;;;;;;9.40;4.90;;;5.20;99.90;;;;;;5131627;28;20054;-69
2022/12/07 05:06:33;;;;;;;7.90;4.78;;;5.20;99.90;;;;;;5115949;28;20055;-70
2022/12/07 05:09:07;;;;;;;7.13;4.63;;;5.20;99.90;;;;;;5147462;28;20047;-70
2022/12/07 05:11:41;;;;;;;;;;;5.20;99.90;;;;;;5162137;28;20036;-69
2022/12/07 05:14:23;;;;;;;10.40;4.20;;;5.20;99.90;;;;;;5157030;28;19914;-70
2022/12/07 05:16:58;;;;;;;8.07;4.40;;;5.20;99.90;;;;;;5149830;28;20050;-70
2022/12/07 05:19:32;;;;;;;7.97;4.53;;;5.20;99.90;;;;;;5157019;28;20326;-70
2022/12/07 05:22:03;;;;;;;;;;;5.20;99.90;;;;;;5156489;28;20227;-70
2022/12/07 05:24:43;;;;;;;5.97;3.80;;;5.20;99.90;;;;;;5156210;28;19910;-69
2022/12/07 05:27:19;;;;;;;8.07;4.70;;;5.20;99.90;;;;;;5128000;28;20315;-70
2022/12/07 05:29:52;;;;;;;11.43;5.47;;;5.20;99.90;;;;;;5152698;28;20212;-69
2022/12/07 05:32:24;;;;;;;8.63;5.15;;;5.20;99.90;;;;;;5127675;28;20353;-69
2022/12/07 05:34:59;;;;;;;7.35;4.00;;;5.20;99.90;;;;;;5117220;29;20039;-69
2022/12/07 05:37:31;;;;;;;6.78;4.55;;;5.10;99.90;;;;;;5138848;28;20039;-69
2022/12/07 05:40:07;;;;;;;6.95;3.72;;;5.10;99.90;;;;;;5111079;29;20044;-69
2022/12/07 05:42:41;;;;;;;5.88;3.65;;;5.20;99.90;;;;;;5130690;29;20035;-69
2022/12/07 05:45:16;;;;;;;9.00;3.90;;;5.20;99.90;;;;;;5122544;29;20055;-72
2022/12/07 05:47:48;;;;;;;5.10;3.35;;;5.20;99.90;;;;;;5129848;28;20049;-69
2022/12/07 05:50:20;;;;;;;8.90;4.55;;;5.20;99.90;;;;;;5137757;28;20051;-70
2022/12/07 05:52:54;;;;;;;7.20;4.10;;;5.20;99.90;;;;;;5149937;28;20041;-70
2022/12/07 05:55:31;;;;;;;5.95;4.10;;;5.20;99.90;;;;;;5132191;28;20166;-69
2022/12/07 06:00:58;;;;;;;8.27;3.65;;;5.20;99.90;;;;;;5100876;28;20360;-70
2022/12/07 06:03:35;;;;;;;7.53;4.03;;;5.20;99.90;;;;;;5135379;28;20072;-69
2022/12/07 06:06:06;;;;;;;7.63;3.63;;;5.20;99.90;;;;;;5120824;28;20046;-70
2022/12/07 06:08:41;;;;;;;5.53;3.47;;;5.30;99.90;;;;;;5158777;28;20040;-69
2022/12/07 06:14:02;;;;;;;5.18;3.50;;;5.30;99.90;;;;;;5151672;28;20034;-69
2022/12/07 06:16:36;;;;;;;7.40;3.50;;;5.30;99.90;;;;;;5153209;28;20025;-69
2022/12/07 06:19:11;;;;;;;;;;;5.30;99.90;;;;;;5153504;28;20047;-69
2022/12/07 06:21:47;;;;;;;5.35;3.47;;;5.30;99.90;;;;;;5152470;28;19928;-69
2022/12/07 06:24:19;;;;;;;6.07;3.35;;;5.40;99.90;;;;;;5153134;28;20191;-70
2022/12/07 06:26:55;;;;;;;6.93;4.03;;;5.40;99.90;;;;;;5143081;28;20030;-69
2022/12/07 06:29:29;;;;;;;7.03;3.90;;;5.40;99.90;;;;;;5157024;28;20052;-69
2022/12/07 06:32:00;;;;;;;6.05;3.42;;;5.40;99.90;;;;;;5132074;28;20049;-69
2022/12/07 06:34:34;;;;;;;7.55;4.05;;;5.40;99.90;;;;;;5153819;28;20259;-69
2022/12/07 06:37:06;;;;;;;5.97;4.00;;;5.40;99.90;;;;;;5153864;28;20373;-70
2022/12/07 06:39:48;;;;;;;6.05;3.65;;;5.40;99.90;;;;;;5125607;28;20208;-69
2022/12/07 06:42:25;;;;;;;5.85;3.75;;;5.40;99.90;;;;;;5154531;28;20034;-70
2022/12/07 06:45:01;;;;;;;6.13;3.70;;;5.40;99.90;;;;;;5154282;28;20049;-69
2022/12/07 06:47:36;;;;;;;6.03;3.72;;;5.40;99.90;;;;;;5141179;28;20052;-72
2022/12/07 06:50:11;;;;;;;5.43;3.50;;;5.40;99.90;;;;;;5136685;28;20050;-71
2022/12/07 06:52:42;;;;;;;5.95;3.40;;;5.40;99.90;;;;;;5150633;28;20069;-69
2022/12/07 06:55:16;;;;;;;5.28;3.72;;;5.30;99.90;;;;;;5159183;28;20046;-69
2022/12/07 06:57:48;;;;;;;5.15;3.45;;;5.30;99.90;;;;;;5153413;28;20162;-69
2022/12/07 07:00:20;;;;;;;5.10;3.30;;;5.30;99.90;;;;;;5170342;28;20035;-69
2022/12/07 07:02:57;;;;;;;5.32;3.03;;;5.30;99.90;;;;;;5156307;28;20042;-69
2022/12/07 07:05:28;;;;;;;4.60;3.15;;;5.30;99.90;;;;;;5146473;28;20046;-69
2022/12/07 07:08:01;;;;;;;5.85;2.88;;;5.30;99.90;;;;;;5135736;28;20045;-69
2022/12/07 07:10:32;;;;;;;5.72;3.50;;;5.40;99.90;;;;;;5125093;28;20369;-69
2022/12/07 07:13:04;;;;;;;4.57;3.28;;;5.40;99.90;;;;;;5135755;28;20042;-69
2022/12/07 07:15:38;;;;;;;6.43;3.45;;;5.50;99.90;;;;;;5152455;28;20038;-69
2022/12/07 07:18:10;;;;;;;5.38;3.15;;;5.50;99.90;;;;;;5153311;28;20030;-69
2022/12/07 07:20:47;;;;;;;4.28;3.17;;;5.50;99.90;;;;;;5140995;28;20047;-69
2022/12/07 07:23:19;;;;;;;4.82;3.22;;;5.50;99.90;;;;;;5153514;28;20042;-69
2022/12/07 07:25:51;;;;;;;4.32;3.17;;;5.50;99.90;;;;;;5169389;28;20031;-69
2022/12/07 07:28:25;;;;;;;4.85;3.20;;;5.40;99.90;;;;;;5152375;28;20061;-69
2022/12/07 07:30:56;;;;;;;3.38;3.05;;;5.50;99.90;;;;;;5151098;28;20042;-69
2022/12/07 07:33:41;;;;;;;4.10;2.75;;;5.50;99.90;;;;;;5139660;28;20057;-68
2022/12/07 07:36:14;;;;;;;3.67;2.78;;;5.50;99.90;;;;;;5134995;28;20070;-69
2022/12/07 07:38:47;;;;;;;4.13;3.00;;;5.60;99.90;;;;;;5150491;28;20042;-69
2022/12/07 07:41:23;;;;;;;3.53;2.65;;;5.60;99.90;;;;;;5132668;28;20054;-69
2022/12/07 07:43:55;;;;;;;3.33;2.63;;;5.60;99.90;;;;;;5130423;28;20057;-69
2022/12/07 07:46:30;;;;;;;5.03;2.72;;;5.70;99.90;;;;;;5150467;28;20068;-69
2022/12/07 07:49:05;;;;;;;4.10;2.75;;;5.70;99.90;;;;;;5135006;28;20228;-69
2022/12/07 07:51:37;;;;;;;6.38;2.60;;;5.70;99.90;;;;;;5150815;28;20047;-68
2022/12/07 07:54:13;;;;;;;4.45;2.85;;;5.70;99.90;;;;;;5150086;28;20038;-68
2022/12/07 07:56:44;;;;;;;2.85;2.33;;;5.70;99.90;;;;;;5150121;28;20046;-69
2022/12/07 07:59:22;;;;;;;4.82;3.00;;;5.80;99.90;;;;;;5151047;28;20033;-69
2022/12/07 08:01:53;;;;;;;6.07;2.80;;;5.80;99.90;;;;;;5136766;28;20035;-69
2022/12/07 08:04:28;;;;;;;4.15;2.90;;;5.90;99.90;;;;;;5142719;28;20047;-69
2022/12/07 08:07:08;;;;;;;3.72;2.67;;;6.00;99.90;;;;;;5123334;28;20042;-69
2022/12/07 08:09:42;;;;;;;3.25;2.78;;;6.00;99.90;;;;;;5165593;28;20061;-69
2022/12/07 08:12:15;;;;;;;3.95;2.85;;;5.80;99.90;;;;;;5134978;28;20361;-69
2022/12/07 08:14:46;;;;;;;3.65;2.83;;;5.80;99.90;;;;;;5150626;28;20057;-69
2022/12/07 08:17:19;;;;;;;7.35;3.08;;;5.90;99.90;;;;;;5150446;28;20035;-69
2022/12/07 08:19:53;;;;;;;4.57;3.10;;;6.00;99.90;;;;;;5150962;28;20033;-69
2022/12/07 08:22:33;;;;;;;7.70;2.55;;;6.00;99.90;;;;;;5149546;28;20038;-69
2022/12/07 08:25:14;;;;;;;3.38;2.92;;;6.10;99.90;;;;;;5149048;28;20065;-69
2022/12/07 08:27:50;;;;;;;3.28;2.63;;;6.10;99.90;;;;;;5151529;28;20064;-69
2022/12/07 08:30:22;;;;;;;3.20;2.50;;;6.10;99.90;;;;;;5150499;28;20043;-69
2022/12/07 08:32:54;;;;;;;3.42;2.72;;;6.00;99.90;;;;;;5166677;28;20080;-69
2022/12/07 08:35:28;;;;;;;4.10;2.88;;;6.00;99.90;;;;;;5145330;28;20051;-69
2022/12/07 08:38:03;;;;;;;3.42;2.67;;;6.00;99.90;;;;;;5163339;28;20053;-68
2022/12/07 08:40:35;;;;;;;3.40;2.50;;;6.00;99.90;;;;;;5139998;28;20034;-69
2022/12/07 08:43:10;;;;;;;2.60;2.30;;;6.00;99.90;;;;;;5125366;28;20055;-68
2022/12/07 08:45:44;;;;;;;2.78;2.42;;;6.00;99.90;;;;;;5162606;28;20301;-68
2022/12/07 08:48:17;;;;;;;151.57;54.90;;;5.90;99.90;;;;;;5145413;28;20043;-69
2022/12/07 08:50:49;;;;;;;287.15;119.50;;;6.00;99.90;;;;;;5121383;28;20047;-71
2022/12/07 08:53:23;;;;;;;363.30;188.13;;;6.10;99.90;;;;;;5133129;28;20381;-68
2022/12/07 08:56:01;;;;;;;35.65;18.83;;;6.20;99.90;;;;;;5123069;28;20047;-69
2022/12/07 08:58:39;;;;;;;402.42;213.07;;;6.00;99.90;;;;;;5149285;28;20039;-69
2022/12/07 09:01:18;;;;;;;345.98;219.88;;;6.00;99.90;;;;;;5160153;28;20050;-69
2022/12/07 09:03:51;;;;;;;16.38;13.93;;;6.00;99.90;;;;;;5127866;28;20103;-69
2022/12/07 09:06:28;;;;;;;24.10;21.63;;;6.00;99.90;;;;;;5165186;28;20054;-69
2022/12/07 09:09:03;;;;;;;;;;;5.90;99.90;;;;;;5113038;28;20039;-68
2022/12/07 09:11:38;;;;;;;6.53;5.00;;;5.80;99.90;;;;;;5155204;28;19921;-68
2022/12/07 09:14:13;;;;;;;29.15;26.20;;;5.90;99.90;;;;;;5133074;28;20287;-68
2022/12/07 09:16:47;;;;;;;2.55;2.28;;;6.00;99.90;;;;;;5160456;28;20056;-68
2022/12/07 09:19:23;;;;;;;3.28;2.83;;;5.90;99.90;;;;;;5165162;28;20219;-68
2022/12/07 09:21:54;;;;;;;3.60;2.80;;;5.90;99.90;;;;;;5139067;28;20037;-68
2022/12/07 09:24:28;;;;;;;4.47;2.45;;;5.90;99.90;;;;;;5122862;28;20046;-68
2022/12/07 09:27:00;;;;;;;4.03;2.80;;;5.60;99.90;;;;;;5124119;28;20034;-68
2022/12/07 09:29:31;;;;;;;4.88;3.85;;;5.50;99.90;;;;;;5134660;28;20040;-68
2022/12/07 09:32:05;;;;;;;4.22;2.70;;;5.50;99.90;;;;;;5165311;28;20033;-68
2022/12/07 09:34:37;;;;;;;3.97;2.88;;;5.50;99.90;;;;;;5149792;28;20061;-68
2022/12/07 09:37:17;;;;;;;3.58;2.88;;;5.40;99.90;;;;;;5136395;28;20593;-69
2022/12/07 09:39:54;;;;;;;3.83;3.13;;;5.40;99.90;;;;;;5127171;28;20043;-69
2022/12/07 09:42:46;;;;;;;3.75;2.85;;;5.50;99.90;;;;;;5161716;28;20231;-68
2022/12/07 09:45:29;;;;;;;4.88;3.30;;;5.60;99.90;;;;;;5155149;28;20048;-68
2022/12/07 09:48:07;;;;;;;4.28;3.00;;;6.00;99.90;;;;;;5160080;28;20063;-69
2022/12/07 09:50:40;;;;;;;4.13;2.80;;;6.20;99.90;;;;;;5151345;28;20041;-68
2022/12/07 09:53:36;;;;;;;4.07;3.10;;;6.30;99.90;;;;;;5166889;28;20117;-68
2022/12/07 09:56:13;;;;;;;4.65;3.42;;;6.60;99.90;;;;;;5133654;28;20038;-69
2022/12/07 09:58:46;;;;;;;4.35;3.72;;;6.50;99.90;;;;;;5146924;28;20236;-69
2022/12/07 10:01:22;;;;;;;5.05;3.67;;;6.50;99.90;;;;;;5137044;28;20046;-69
2022/12/07 10:04:21;;;;;;;3.53;3.13;;;6.30;99.90;;;;;;5155209;28;20049;-68
2022/12/07 10:06:53;;;;;;;4.60;4.13;;;6.40;99.90;;;;;;5096488;28;20050;-68
2022/12/07 10:09:26;;;;;;;4.88;3.53;;;6.80;99.90;;;;;;5138699;28;20042;-68
2022/12/07 10:12:02;;;;;;;4.90;3.15;;;6.90;99.90;;;;;;5129409;28;20335;-69
2022/12/07 10:14:48;;;;;;;4.20;2.55;;;6.90;99.90;;;;;;5124130;28;20043;-69
2022/12/07 10:17:39;;;;;;;3.42;3.05;;;6.70;99.90;;;;;;5174249;28;20037;-68
2022/12/07 10:20:26;;;;;;;7.28;5.97;;;6.40;99.90;;;;;;5138692;28;20051;-69
2022/12/07 10:23:14;;;;;;;4.80;3.30;;;6.60;99.90;;;;;;5122390;28;20038;-69
2022/12/07 10:25:48;;;;;;;4.97;3.55;;;6.50;99.90;;;;;;5138514;28;20049;-69
2022/12/07 10:28:19;;;;;;;8.35;3.42;;;6.20;99.90;;;;;;5137876;28;20049;-69
2022/12/07 10:31:06;;;;;;;5.40;4.78;;;6.10;99.90;;;;;;5166230;28;20052;-71
2022/12/07 10:34:01;;;;;;;4.70;4.20;;;6.20;99.90;;;;;;5143268;28;20051;-69
2022/12/07 10:36:39;;;;;;;7.63;5.93;;;5.90;99.90;;;;;;5152099;28;20053;-69
2022/12/07 10:39:34;;;;;;;5.03;3.63;;;5.80;99.90;;;;;;5131062;28;20047;-69
2022/12/07 10:42:15;;;;;;;10.93;9.68;;;5.70;99.90;;;;;;5147703;28;20037;-69
2022/12/07 10:45:09;;;;;;;5.43;4.00;;;6.00;99.90;;;;;;5147989;28;20055;-69
2022/12/07 10:48:11;;;;;;;5.22;4.68;;;5.90;99.90;;;;;;5154400;28;20043;-69
2022/12/07 10:51:10;;;;;;;5.00;3.25;;;5.80;99.90;;;;;;5121049;28;20053;-69
2022/12/07 10:54:18;;;;;;;4.93;3.45;;;5.70;99.90;;;;;;5155702;28;20035;-69
2022/12/07 10:57:07;;;;;;;5.15;3.78;;;5.70;99.90;;;;;;5162318;28;20043;-70
2022/12/07 10:59:53;;;;;;;4.15;3.13;;;5.70;99.90;;;;;;5152836;28;20047;-70
2022/12/07 11:03:15;;;;;;;4.68;3.80;;;5.70;99.90;;;;;;5137124;28;20047;-69
2022/12/07 11:06:07;;;;;;;4.30;3.45;;;5.80;99.90;;;;;;5120211;28;20059;-72
2022/12/07 11:09:03;;;;;;;4.70;3.40;;;5.90;99.90;;;;;;5152354;28;20057;-70
2022/12/07 11:12:16;;;;;;;3.83;2.70;;;5.90;99.90;;;;;;5169835;28;20037;-70
2022/12/07 11:15:02;;;;;;;5.97;4.30;;;6.60;99.90;;;;;;5148837;28;20380;-69
2022/12/07 11:18:01;;;;;;;5.25;3.22;;;6.50;99.90;;;;;;5172403;28;20050;-70
2022/12/07 11:21:17;;;;;;;17.35;10.50;;;6.50;99.90;;;;;;5155467;28;20052;-70
2022/12/07 11:23:49;;;;;;;;;;;6.70;99.90;;;;;;5162922;28;20026;-70
2022/12/07 11:26:41;;;;;;;4.95;3.45;;;6.60;99.90;;;;;;5160497;28;20229;-70
2022/12/07 11:29:36;;;;;;;5.85;3.45;;;6.70;99.90;;;;;;5136539;28;20371;-70
2022/12/07 11:32:51;;;;;;;12.98;6.32;;;7.40;99.90;;;;;;5128226;28;20124;-70
2022/12/07 11:35:47;;;;;;;4.10;3.00;;;7.40;99.90;;;;;;5152620;28;20041;-70
2022/12/07 11:38:33;;;;;;;4.35;3.10;;;6.80;99.90;;;;;;5149630;28;20064;-71
2022/12/07 11:41:12;;;;;;;5.30;3.50;;;6.40;99.90;;;;;;5147597;28;20085;-70
2022/12/07 11:44:27;;;;;;;12.82;7.78;;;6.20;99.90;;;;;;5151329;28;20029;-70
2022/12/07 11:47:27;;;;;;;6.63;3.47;;;6.20;99.90;;;;;;5150545;28;20053;-69
2022/12/07 11:50:19;;;;;;;3.95;2.75;;;6.60;99.90;;;;;;5150069;28;20220;-69
2022/12/07 11:53:29;;;;;;;4.82;3.50;;;6.70;99.90;;;;;;5153885;28;20041;-70
2022/12/07 11:56:20;;;;;;;27.35;13.75;;;6.60;99.90;;;;;;5145812;28;20068;-70
2022/12/07 11:59:10;;;;;;;5.07;4.20;;;6.60;99.90;;;;;;5132696;28;20069;-70
2022/12/07 12:02:17;;;;;;;4.53;3.40;;;6.20;99.90;;;;;;5146877;28;20050;-70
2022/12/07 12:05:21;;;;;;;5.60;3.60;;;6.10;99.90;;;;;;5120444;28;20051;-70
2022/12/07 12:08:33;;;;;;;6.20;3.70;;;6.40;99.90;;;;;;5131709;28;20053;-69
2022/12/07 12:11:31;;;;;;;4.07;3.17;;;7.30;99.90;;;;;;5141882;28;20444;-70
2022/12/07 12:14:51;;;;;;;10.45;2.90;;;9.00;99.90;;;;;;5125532;28;20280;-69
2022/12/07 12:18:12;;;;;;;3.50;2.95;;;9.10;99.90;;;;;;5117868;28;20061;-69
2022/12/07 12:21:08;;;;;;;4.88;3.25;;;9.20;99.90;;;;;;5092312;29;20043;-69
2022/12/07 12:24:18;;;;;;;3.20;2.35;;;9.80;99.90;;;;;;5104896;28;20047;-70
2022/12/07 12:27:25;;;;;;;4.88;3.55;;;9.50;99.90;;;;;;5077671;29;20095;-70
2022/12/07 12:30:04;;;;;;;6.15;4.25;;;9.80;99.90;;;;;;5024513;29;20056;-70
2022/12/07 12:32:43;;;;;;;6.15;5.10;;;10.10;99.90;;;;;;5004985;29;20053;-71
2022/12/07 12:35:33;;;;;;;4.15;3.00;;;10.00;99.90;;;;;;5018074;29;20127;-69
2022/12/07 12:38:48;;;;;;;7.97;6.45;;;9.70;99.90;;;;;;5003158;29;20059;-71
2022/12/07 12:44:20;;;;;;;6.93;5.50;;;11.00;99.90;;;;;;5007444;29;20037;-71
2022/12/07 12:47:01;;;;;;;5.68;4.75;;;10.90;99.90;;;;;;5015023;29;20110;-70
2022/12/07 12:49:43;;;;;;;7.65;3.80;;;11.20;99.90;;;;;;5016149;29;20049;-71
2022/12/07 12:52:16;;;;;;;5.30;4.75;;;11.90;99.90;;;;;;5002914;29;20037;-71
2022/12/07 12:55:20;;;;;;;4.70;4.23;;;11.80;99.90;;;;;;5017041;29;20051;-71
2022/12/07 12:58:19;;;;;;;3.85;3.25;;;11.60;99.90;;;;;;5009710;29;20041;-71
2022/12/07 13:01:36;;;;;;;6.22;4.10;;;11.10;99.90;;;;;;5031581;29;20658;-71
2022/12/07 13:04:52;;;;;;;4.85;3.80;;;11.40;99.90;;;;;;5065174;29;20053;-70
2022/12/07 13:07:51;;;;;;;6.20;3.90;;;10.70;99.90;;;;;;5110018;28;20057;-70
2022/12/07 13:10:30;;;;;;;4.60;3.33;;;10.20;99.90;;;;;;5149677;28;20043;-70
2022/12/07 13:13:14;;;;;;;5.82;4.35;;;9.50;99.90;;;;;;5156394;28;20042;-71
2022/12/07 13:16:09;;;;;;;6.95;5.13;;;9.10;99.90;;;;;;5157793;28;20026;-70
2022/12/07 13:18:46;;;;;;;4.72;4.07;;;9.40;99.90;;;;;;5134130;28;20035;-71
2022/12/07 13:21:21;;;;;;;65.65;47.65;;;9.80;99.90;;;;;;5149598;28;20046;-71
2022/12/07 13:23:58;;;;;;;;;;;10.10;99.90;;;;;;5150707;28;20031;-71
2022/12/07 13:26:37;;;;;;;4.68;3.20;;;9.40;99.90;;;;;;5148821;28;19922;-71
2022/12/07 13:29:30;;;;;;;6.45;5.30;;;9.00;99.90;;;;;;5151911;28;20221;-70
2022/12/07 13:32:16;;;;;;;6.05;4.03;;;8.50;99.90;;;;;;5142764;28;20466;-71
2022/12/07 13:34:48;;;;;;;7.03;4.10;;;8.30;99.90;;;;;;5168445;28;20053;-71
2022/12/07 13:37:33;;;;;;;17.55;13.48;;;7.90;99.90;;;;;;5136507;28;20030;-70
2022/12/07 13:40:28;;;;;;;16.38;11.98;;;7.70;99.90;;;;;;5150046;28;20039;-71
2022/12/07 13:43:13;;;;;;;10.77;9.05;;;7.70;99.90;;;;;;5139548;28;20050;-71
2022/12/07 13:45:56;;;;;;;8.65;5.70;;;7.50;99.90;;;;;;5128531;28;20450;-71
2022/12/07 13:48:35;;;;;;;6.07;3.63;;;7.20;99.90;;;;;;5117085;28;20506;-71
2022/12/07 13:51:27;;;;;;;5.65;3.60;;;7.00;99.90;;;;;;5132183;28;20053;-71
2022/12/07 13:54:13;;;;;;;5.68;4.00;;;6.90;99.90;;;;;;5132371;28;20057;-71
2022/12/07 13:56:53;;;;;;;5.13;3.70;;;6.80;99.90;;;;;;5122159;28;20040;-70
2022/12/07 13:59:33;;;;;;;6.45;2.97;;;6.60;99.90;;;;;;5150220;28;20057;-71
2022/12/07 14:02:23;;;;;;;3.67;2.97;;;6.60;99.90;;;;;;5135226;28;20051;-71
2022/12/07 14:05:32;;;;;;;4.63;3.13;;;6.50;99.90;;;;;;5127287;28;20050;-70
2022/12/07 14:08:23;;;;;;;5.15;3.30;;;6.30;99.90;;;;;;5142208;28;20059;-70
2022/12/07 14:11:02;;;;;;;6.03;3.42;;;6.10;99.90;;;;;;5143300;28;20255;-70
2022/12/07 14:13:58;;;;;;;3.75;3.15;;;6.20;99.90;;;;;;5152432;28;20053;-70
2022/12/07 14:16:42;;;;;;;4.30;3.05;;;6.00;99.90;;;;;;5135076;28;20050;-70
2022/12/07 14:19:44;;;;;;;5.82;3.10;;;6.10;99.90;;;;;;5170472;28;20065;-70
2022/12/07 14:22:33;;;;;;;4.70;2.90;;;6.00;99.90;;;;;;5128877;28;20072;-70
2022/12/07 14:25:16;;;;;;;5.85;3.30;;;5.90;99.90;;;;;;5142588;28;20219;-70